Time;durP1;ratioP1;P1;durP2;ratioP2;P2;SDS_P1;SDS_P2;PMS_P1;PMS_P2;Temp;Humidity;BMP_temperature;BMP_pressure;BME280_temperature;BME280_humidity;BME280_pressure;Samples;Min_cycle;Max_cycle;Signal;HPM_P1;HPM_P2
2021/03/13 00:00:06;;;;;;;4.47;2.03;;;10.10;74.10;;;;;;4990113;28;20030;-82
2021/03/13 00:02:38;;;;;;;3.78;1.90;;;10.10;74.10;;;;;;4991353;28;20518;-81
2021/03/13 00:05:04;;;;;;;3.28;1.42;;;10.10;74.10;;;;;;4973454;28;20054;-81
2021/03/13 00:07:30;;;;;;;3.92;1.90;;;10.10;74.10;;;;;;4971735;28;20022;-85
2021/03/13 00:09:56;;;;;;;3.75;1.83;;;10.10;74.10;;;;;;4990927;28;20146;-87
2021/03/13 00:12:21;;;;;;;1.90;1.60;;;10.10;74.10;;;;;;4971678;28;20030;-87
2021/03/13 00:14:47;;;;;;;2.35;1.75;;;10.10;74.10;;;;;;4975241;28;20049;-87
2021/03/13 00:17:13;;;;;;;6.13;1.98;;;10.10;74.10;;;;;;4944762;28;20084;-86
2021/03/13 00:19:39;;;;;;;4.22;1.70;;;10.10;74.20;;;;;;4943432;28;20381;-88
2021/03/13 00:22:05;;;;;;;4.50;1.73;;;10.10;74.20;;;;;;4972910;28;20034;-87
2021/03/13 00:24:31;;;;;;;3.50;1.70;;;10.10;74.20;;;;;;4970403;28;20026;-87
2021/03/13 00:26:56;;;;;;;4.80;2.30;;;10.10;74.20;;;;;;4975891;28;20054;-88
2021/03/13 00:29:22;;;;;;;2.90;1.50;;;10.00;74.10;;;;;;4976430;28;20089;-88
2021/03/13 00:31:52;;;;;;;2.83;1.63;;;10.00;74.10;;;;;;4976459;28;20038;-88
2021/03/13 00:34:19;;;;;;;2.90;1.80;;;10.00;74.20;;;;;;4992671;28;20022;-88
2021/03/13 00:36:45;;;;;;;3.15;1.80;;;10.10;74.20;;;;;;4977131;28;20125;-88
2021/03/13 00:39:11;;;;;;;1.65;1.23;;;10.10;74.20;;;;;;4992600;28;20042;-87
2021/03/13 00:41:37;;;;;;;1.90;1.50;;;10.10;74.20;;;;;;4976744;28;20154;-87
2021/03/13 00:44:03;;;;;;;3.65;1.70;;;10.10;74.20;;;;;;4965784;28;20061;-88
2021/03/13 00:46:28;;;;;;;5.82;1.90;;;10.00;74.20;;;;;;4992792;28;20054;-87
2021/03/13 00:48:55;;;;;;;2.63;1.52;;;10.10;74.20;;;;;;4968009;28;20038;-86
2021/03/13 00:51:21;;;;;;;3.45;1.50;;;10.10;74.30;;;;;;4976902;28;20030;-86
2021/03/13 00:53:47;;;;;;;2.60;1.60;;;10.00;74.20;;;;;;4992914;28;20117;-87
2021/03/13 00:56:13;;;;;;;3.03;1.52;;;10.10;74.30;;;;;;4976596;28;20054;-86
2021/03/13 00:58:38;;;;;;;3.40;1.42;;;10.00;74.20;;;;;;4976842;28;20372;-86
2021/03/13 01:01:04;;;;;;;2.90;1.60;;;10.00;74.20;;;;;;4960333;28;20030;-87
2021/03/13 01:03:34;;;;;;;2.83;1.58;;;10.10;74.30;;;;;;4971604;28;20090;-87
2021/03/13 01:06:02;;;;;;;3.35;1.73;;;10.00;74.20;;;;;;4976348;28;20388;-86
2021/03/13 01:08:31;;;;;;;3.15;1.52;;;10.00;74.20;;;;;;4977054;28;20018;-86
2021/03/13 01:11:08;;;;;;;3.75;1.55;;;10.00;74.20;;;;;;4973096;28;20109;-87
2021/03/13 01:13:40;;;;;;;2.80;1.60;;;10.00;74.20;;;;;;4990360;28;20026;-86
2021/03/13 01:16:07;;;;;;;3.67;1.80;;;10.00;74.30;;;;;;4992212;28;20045;-86
2021/03/13 01:18:33;;;;;;;2.28;1.38;;;10.10;74.30;;;;;;4959822;28;20057;-87
2021/03/13 01:21:01;;;;;;;3.88;1.70;;;10.00;74.30;;;;;;4976161;28;20434;-87
2021/03/13 01:23:36;;;;;;;6.00;2.30;;;10.00;74.30;;;;;;4951921;28;20023;-87
2021/03/13 01:26:02;;;;;;;2.67;1.40;;;10.00;74.20;;;;;;4975862;28;20137;-86
2021/03/13 01:28:28;;;;;;;4.10;1.60;;;10.00;74.30;;;;;;4944614;28;20039;-88
2021/03/13 01:30:54;;;;;;;3.50;1.60;;;10.00;74.30;;;;;;4944741;28;20130;-85
2021/03/13 01:33:20;;;;;;;2.67;1.70;;;10.00;74.30;;;;;;4948183;28;20073;-87
2021/03/13 01:35:46;;;;;;;1.80;1.50;;;10.00;74.30;;;;;;4963934;28;20037;-87
2021/03/13 01:38:12;;;;;;;3.88;1.90;;;10.00;74.30;;;;;;4960387;28;20035;-87
2021/03/13 01:40:39;;;;;;;3.85;1.50;;;10.00;74.30;;;;;;4973662;28;20037;-86
2021/03/13 01:43:05;;;;;;;4.35;1.60;;;10.00;74.30;;;;;;4995705;28;20022;-88
2021/03/13 01:45:32;;;;;;;3.13;1.52;;;10.00;74.30;;;;;;4979702;28;20439;-87
2021/03/13 01:47:59;;;;;;;1.75;1.40;;;10.00;74.30;;;;;;4996911;28;20498;-87
2021/03/13 01:50:26;;;;;;;1.83;1.30;;;10.00;74.30;;;;;;4995308;28;20031;-87
2021/03/13 01:52:53;;;;;;;2.00;1.60;;;10.10;74.40;;;;;;4963589;28;20046;-86
2021/03/13 01:55:25;;;;;;;2.42;1.58;;;10.00;74.40;;;;;;4976285;28;20031;-86
2021/03/13 01:57:56;;;;;;;3.38;1.50;;;10.00;74.40;;;;;;4963354;28;20043;-86
2021/03/13 02:00:25;;;;;;;2.25;1.45;;;10.00;74.40;;;;;;4980001;28;20035;-86
2021/03/13 02:02:55;;;;;;;3.00;1.50;;;10.00;74.40;;;;;;4979557;28;20030;-87
2021/03/13 02:05:32;;;;;;;2.15;1.40;;;10.00;74.40;;;;;;4948910;28;20097;-88
2021/03/13 02:08:18;;;;;;;1.30;1.20;;;10.00;74.40;;;;;;4992522;28;20112;-85
2021/03/13 02:11:34;;;;;;;1.80;1.40;;;10.00;74.40;;;;;;4979651;28;20030;-86
2021/03/13 02:14:22;;;;;;;2.78;1.58;;;10.00;74.60;;;;;;4920594;28;20042;-85
2021/03/13 02:17:11;;;;;;;3.67;1.77;;;10.00;74.40;;;;;;4980461;28;20081;-84
2021/03/13 02:20:11;;;;;;;2.15;1.55;;;10.00;74.40;;;;;;4979654;28;20472;-85
2021/03/13 02:22:39;;;;;;;2.42;1.30;;;10.00;74.50;;;;;;4986056;28;20072;-85
2021/03/13 02:26:01;;;;;;;2.88;1.42;;;10.00;74.50;;;;;;4979002;28;20124;-84
2021/03/13 02:28:52;;;;;;;1.58;1.48;;;10.00;74.60;;;;;;4975532;28;20071;-85
2021/03/13 02:31:21;;;;;;;2.38;1.58;;;10.00;74.50;;;;;;4974883;28;20073;-85
2021/03/13 02:33:49;;;;;;;2.08;1.48;;;9.90;74.50;;;;;;4978548;28;20029;-85
2021/03/13 02:36:30;;;;;;;3.13;1.40;;;10.00;74.60;;;;;;4983137;28;20041;-85
2021/03/13 02:39:07;;;;;;;1.60;1.30;;;10.00;74.60;;;;;;4979253;28;20035;-84
2021/03/13 02:41:49;;;;;;;2.47;1.50;;;9.90;74.60;;;;;;4994685;28;20455;-85
2021/03/13 02:44:17;;;;;;;1.98;1.50;;;10.00;74.60;;;;;;4992935;28;20053;-84
2021/03/13 02:46:52;;;;;;;2.10;1.40;;;9.90;74.60;;;;;;4994651;28;20037;-84
2021/03/13 02:49:25;;;;;;;3.17;1.58;;;10.00;74.60;;;;;;4978576;28;20567;-84
2021/03/13 02:51:59;;;;;;;2.55;1.52;;;10.00;74.60;;;;;;4994965;28;20038;-84
2021/03/13 02:54:26;;;;;;;2.45;1.40;;;10.00;74.60;;;;;;4978426;28;20038;-84
2021/03/13 02:56:55;;;;;;;1.92;1.60;;;10.00;74.70;;;;;;4978646;28;20045;-85
2021/03/13 02:59:22;;;;;;;1.60;1.50;;;9.90;74.60;;;;;;4978237;28;20034;-84
2021/03/13 03:01:48;;;;;;;2.65;1.60;;;9.90;74.60;;;;;;4959019;28;20031;-85
2021/03/13 03:04:16;;;;;;;2.53;1.67;;;9.90;74.60;;;;;;4975977;28;20049;-84
2021/03/13 03:06:48;;;;;;;2.17;1.50;;;9.90;74.60;;;;;;4978255;28;20399;-85
2021/03/13 03:09:15;;;;;;;2.65;1.70;;;10.00;74.70;;;;;;4977984;28;20034;-84
2021/03/13 03:11:47;;;;;;;2.47;1.60;;;9.90;74.60;;;;;;4978716;28;20038;-84
2021/03/13 03:14:17;;;;;;;3.15;1.88;;;9.90;74.60;;;;;;4977733;28;20038;-85
2021/03/13 03:16:46;;;;;;;2.63;1.65;;;10.00;74.70;;;;;;4948132;28;20034;-85
2021/03/13 03:19:16;;;;;;;2.88;1.70;;;9.90;74.70;;;;;;4991186;28;20117;-85
2021/03/13 03:21:46;;;;;;;3.33;1.88;;;9.90;74.70;;;;;;4977659;28;20030;-85
2021/03/13 03:24:13;;;;;;;2.70;1.60;;;9.90;74.70;;;;;;4993159;28;20030;-85
2021/03/13 03:26:40;;;;;;;4.15;1.85;;;10.00;74.70;;;;;;4961603;28;20057;-85
2021/03/13 03:29:08;;;;;;;3.03;1.63;;;9.90;74.70;;;;;;4960980;28;20489;-85
2021/03/13 03:31:36;;;;;;;2.28;1.60;;;9.90;74.70;;;;;;4961171;28;20550;-85
2021/03/13 03:34:04;;;;;;;2.22;1.50;;;9.90;74.70;;;;;;4977657;28;20113;-84
2021/03/13 03:36:30;;;;;;;3.22;2.05;;;9.90;74.70;;;;;;4976773;28;20054;-85
2021/03/13 03:38:57;;;;;;;3.20;1.77;;;9.90;74.70;;;;;;4977713;28;20034;-84
2021/03/13 03:41:34;;;;;;;2.10;1.50;;;9.90;74.70;;;;;;4993193;28;20033;-84
2021/03/13 03:44:08;;;;;;;3.30;1.70;;;9.90;74.70;;;;;;4993738;28;20455;-84
2021/03/13 03:46:37;;;;;;;1.73;1.50;;;9.90;74.70;;;;;;4974858;28;20022;-84
2021/03/13 03:49:09;;;;;;;2.95;1.90;;;9.90;74.80;;;;;;4947628;28;20088;-83
2021/03/13 03:51:44;;;;;;;2.42;1.73;;;9.90;74.80;;;;;;4992898;28;20059;-84
2021/03/13 03:54:15;;;;;;;2.63;1.70;;;9.90;74.80;;;;;;4992862;28;20030;-84
2021/03/13 03:56:42;;;;;;;1.77;1.50;;;9.90;74.80;;;;;;4977154;28;20030;-84
2021/03/13 03:59:10;;;;;;;2.92;1.83;;;9.90;74.80;;;;;;4954252;28;20491;-84
2021/03/13 04:01:37;;;;;;;1.60;1.50;;;9.90;74.80;;;;;;4992323;28;20502;-84
2021/03/13 04:04:07;;;;;;;2.00;1.55;;;9.90;74.90;;;;;;4952728;28;20046;-84
2021/03/13 04:06:33;;;;;;;1.77;1.35;;;9.80;74.80;;;;;;4969509;28;20037;-85
2021/03/13 04:09:02;;;;;;;2.63;1.60;;;9.90;74.90;;;;;;4994615;28;20047;-85
2021/03/13 04:11:28;;;;;;;1.92;1.50;;;9.90;74.90;;;;;;4994235;28;20023;-85
2021/03/13 04:13:57;;;;;;;2.03;1.40;;;9.80;74.80;;;;;;4990115;28;20102;-85
2021/03/13 04:16:23;;;;;;;2.75;1.80;;;9.90;74.90;;;;;;4983413;28;20034;-84
2021/03/13 04:18:49;;;;;;;2.28;1.45;;;9.90;74.90;;;;;;4992020;28;20027;-85
2021/03/13 04:21:16;;;;;;;1.75;1.33;;;9.90;74.90;;;;;;4980581;28;20042;-85
2021/03/13 04:23:45;;;;;;;2.70;1.50;;;9.80;74.90;;;;;;4984401;28;20034;-84
2021/03/13 04:26:11;;;;;;;1.42;1.33;;;9.80;74.90;;;;;;4993534;28;20097;-83
2021/03/13 04:28:37;;;;;;;2.10;1.63;;;9.80;74.90;;;;;;4976797;28;20041;-85
2021/03/13 04:31:04;;;;;;;2.97;1.67;;;9.90;75.00;;;;;;4992589;28;20696;-85
2021/03/13 04:33:32;;;;;;;1.77;1.30;;;9.90;75.00;;;;;;4976758;28;20026;-86
2021/03/13 04:35:59;;;;;;;1.77;1.52;;;9.90;75.00;;;;;;4959715;28;20390;-85
2021/03/13 04:38:26;;;;;;;2.45;1.60;;;9.90;75.00;;;;;;4958462;28;20081;-86
2021/03/13 04:40:53;;;;;;;2.05;1.48;;;9.90;75.00;;;;;;4993366;28;20061;-83
2021/03/13 04:43:21;;;;;;;3.47;1.70;;;9.80;75.00;;;;;;4965186;28;20037;-85
2021/03/13 04:45:48;;;;;;;2.22;1.60;;;9.80;75.00;;;;;;4985218;28;20030;-86
2021/03/13 04:48:15;;;;;;;2.10;1.60;;;9.90;75.10;;;;;;4992776;28;20042;-85
2021/03/13 04:50:41;;;;;;;1.98;1.30;;;9.80;75.00;;;;;;4992982;28;20386;-85
2021/03/13 04:53:08;;;;;;;2.75;1.60;;;9.80;75.00;;;;;;4931502;28;20035;-86
2021/03/13 04:55:34;;;;;;;3.22;1.60;;;9.80;75.10;;;;;;4976887;28;20126;-86
2021/03/13 04:58:00;;;;;;;2.85;1.67;;;9.90;75.10;;;;;;4976134;28;20054;-86
2021/03/13 05:00:26;;;;;;;1.95;1.30;;;9.90;75.20;;;;;;4987514;28;20027;-86
2021/03/13 05:02:51;;;;;;;2.30;1.55;;;9.80;75.10;;;;;;4960433;28;20103;-86
2021/03/13 05:05:17;;;;;;;1.98;1.58;;;9.90;75.10;;;;;;4992515;28;20034;-86
2021/03/13 05:07:43;;;;;;;2.03;1.42;;;9.90;75.40;;;;;;4971007;28;20062;-86
2021/03/13 05:10:09;;;;;;;2.70;1.65;;;9.90;75.20;;;;;;4964765;28;20041;-87
2021/03/13 05:12:35;;;;;;;2.10;1.60;;;9.80;75.10;;;;;;4980432;28;20401;-86
2021/03/13 05:15:03;;;;;;;1.73;1.30;;;9.80;75.10;;;;;;4997691;28;20117;-86
2021/03/13 05:17:29;;;;;;;1.50;1.20;;;9.80;75.10;;;;;;4977067;28;20041;-85
2021/03/13 05:19:55;;;;;;;3.53;1.70;;;9.90;75.20;;;;;;4989905;28;20026;-84
2021/03/13 05:22:21;;;;;;;1.83;1.33;;;9.90;75.20;;;;;;4997161;28;20026;-86
2021/03/13 05:24:47;;;;;;;2.10;1.40;;;9.80;75.10;;;;;;4990748;28;20030;-85
2021/03/13 05:27:13;;;;;;;2.90;1.55;;;9.90;75.20;;;;;;4994022;28;20050;-86
2021/03/13 05:29:38;;;;;;;2.08;1.40;;;9.80;75.10;;;;;;4980020;28;20034;-85
2021/03/13 05:32:04;;;;;;;1.80;1.30;;;9.90;75.20;;;;;;4979953;28;20026;-86
2021/03/13 05:34:30;;;;;;;1.92;1.33;;;9.90;75.20;;;;;;4994650;28;20050;-85
2021/03/13 05:36:56;;;;;;;2.25;1.50;;;9.90;75.30;;;;;;4963710;28;20479;-85
2021/03/13 05:39:21;;;;;;;1.55;1.45;;;9.80;75.20;;;;;;4995528;28;20038;-85
2021/03/13 05:41:48;;;;;;;2.88;1.50;;;9.90;75.30;;;;;;4978915;28;20053;-84
2021/03/13 05:44:14;;;;;;;2.38;1.38;;;9.90;75.30;;;;;;4979345;28;20027;-85
2021/03/13 05:46:44;;;;;;;1.42;1.30;;;9.90;75.30;;;;;;4995060;28;20121;-85
2021/03/13 05:49:11;;;;;;;1.50;1.40;;;9.80;75.30;;;;;;4996138;28;20053;-85
2021/03/13 05:51:45;;;;;;;1.85;1.42;;;9.80;75.30;;;;;;4963369;28;20121;-84
2021/03/13 05:54:16;;;;;;;1.55;1.45;;;9.90;75.40;;;;;;4960681;28;20027;-84
2021/03/13 05:56:43;;;;;;;1.33;1.23;;;9.90;75.30;;;;;;4988856;28;20030;-85
2021/03/13 05:59:10;;;;;;;2.95;1.30;;;9.90;75.30;;;;;;4979785;28;20471;-85
2021/03/13 06:01:37;;;;;;;1.88;1.30;;;9.90;75.40;;;;;;4979349;28;20038;-85
2021/03/13 06:04:02;;;;;;;2.15;1.40;;;9.90;75.40;;;;;;4979715;28;20378;-87
2021/03/13 06:06:34;;;;;;;2.80;1.50;;;9.90;75.40;;;;;;4956236;28;20043;-86
2021/03/13 06:09:00;;;;;;;1.38;1.27;;;9.90;75.40;;;;;;4979653;28;20026;-85
2021/03/13 06:11:26;;;;;;;1.65;1.30;;;9.90;75.40;;;;;;4979138;28;20030;-85
2021/03/13 06:13:52;;;;;;;2.08;1.30;;;9.90;75.50;;;;;;4979156;28;20058;-85
2021/03/13 06:16:18;;;;;;;1.85;1.38;;;9.90;76.10;;;;;;4995408;28;20073;-84
2021/03/13 06:18:49;;;;;;;1.75;1.33;;;9.90;75.50;;;;;;4978660;28;20117;-84
2021/03/13 06:21:33;;;;;;;3.42;1.40;;;9.90;75.50;;;;;;4979040;28;20062;-82
2021/03/13 06:24:13;;;;;;;2.35;1.65;;;9.90;75.60;;;;;;4977176;28;20034;-83
2021/03/13 06:26:54;;;;;;;2.10;1.08;;;9.90;75.50;;;;;;4994551;28;20117;-83
2021/03/13 06:29:21;;;;;;;1.95;1.40;;;9.90;75.60;;;;;;4978468;28;20037;-83
2021/03/13 06:32:14;;;;;;;1.83;1.20;;;9.90;75.50;;;;;;4978141;28;20517;-84
2021/03/13 06:34:41;;;;;;;1.55;1.10;;;9.90;75.70;;;;;;4978002;28;20027;-84
2021/03/13 06:37:28;;;;;;;1.42;1.15;;;9.90;75.50;;;;;;4978161;28;20031;-84
2021/03/13 06:39:55;;;;;;;1.00;1.00;;;9.90;75.60;;;;;;4978178;28;20026;-83
2021/03/13 06:42:29;;;;;;;1.30;1.10;;;9.90;75.50;;;;;;4994357;28;20218;-83
2021/03/13 06:45:05;;;;;;;2.55;1.13;;;9.90;75.60;;;;;;4975363;28;20031;-84
2021/03/13 06:47:39;;;;;;;1.08;1.00;;;9.90;75.60;;;;;;4993504;28;20173;-84
2021/03/13 06:50:19;;;;;;;1.13;1.03;;;9.90;75.60;;;;;;4962236;28;20034;-84
2021/03/13 06:52:48;;;;;;;1.65;1.10;;;9.90;75.50;;;;;;4994004;28;20027;-83
2021/03/13 06:55:24;;;;;;;1.67;1.23;;;9.90;75.50;;;;;;4994499;28;20484;-84
2021/03/13 06:57:50;;;;;;;1.02;1.02;;;9.90;75.60;;;;;;4994671;28;20061;-83
2021/03/13 07:00:28;;;;;;;1.65;1.20;;;9.90;75.60;;;;;;4977258;28;20094;-83
2021/03/13 07:03:11;;;;;;;1.50;1.08;;;9.90;75.60;;;;;;4994662;28;20122;-83
2021/03/13 07:05:39;;;;;;;1.10;1.00;;;9.90;75.70;;;;;;4982632;28;20026;-84
2021/03/13 07:08:28;;;;;;;1.15;1.05;;;9.90;75.50;;;;;;4994039;28;20066;-84
2021/03/13 07:11:03;;;;;;;1.63;1.02;;;9.90;75.70;;;;;;4991973;28;20015;-84
2021/03/13 07:13:48;;;;;;;;;;;9.90;75.60;;;;;;4975360;28;20034;-84
2021/03/13 07:16:33;;;;;;;1.30;1.20;;;9.90;75.50;;;;;;4995651;28;19904;-84
2021/03/13 07:19:08;;;;;;;1.20;1.10;;;9.80;75.40;;;;;;4978883;28;20053;-84
2021/03/13 07:21:37;;;;;;;0.90;0.90;;;9.80;75.40;;;;;;4977006;28;20039;-85
2021/03/13 07:24:09;;;;;;;1.50;1.00;;;9.80;75.50;;;;;;4994939;28;20538;-84
2021/03/13 07:26:38;;;;;;;2.05;1.67;;;9.80;75.60;;;;;;4995421;28;20072;-84
2021/03/13 07:29:06;;;;;;;1.48;1.00;;;9.80;75.60;;;;;;4977913;28;20126;-85
2021/03/13 07:31:55;;;;;;;1.15;1.00;;;9.80;75.60;;;;;;4978687;28;20026;-84
2021/03/13 07:34:29;;;;;;;1.35;1.08;;;9.90;75.70;;;;;;4994409;28;20026;-85
2021/03/13 07:36:58;;;;;;;1.23;1.02;;;9.80;75.50;;;;;;4994163;28;20482;-84
2021/03/13 07:39:29;;;;;;;1.38;1.08;;;9.80;75.50;;;;;;4993411;28;20026;-84
2021/03/13 07:42:03;;;;;;;1.90;1.10;;;9.80;75.50;;;;;;4978096;28;20125;-85
2021/03/13 07:44:30;;;;;;;2.35;1.17;;;9.80;75.50;;;;;;4993449;28;20031;-85
2021/03/13 07:47:01;;;;;;;0.88;0.88;;;9.80;75.40;;;;;;4993605;28;20062;-84
2021/03/13 07:49:27;;;;;;;1.05;1.05;;;9.80;75.40;;;;;;4993508;28;20474;-85
2021/03/13 07:51:53;;;;;;;1.92;1.10;;;9.80;75.40;;;;;;4960981;28;20058;-86
2021/03/13 07:54:20;;;;;;;1.27;1.10;;;9.80;75.40;;;;;;4993600;28;20034;-83
2021/03/13 07:56:47;;;;;;;2.05;1.17;;;9.80;75.40;;;;;;4977178;28;20113;-85
2021/03/13 07:59:33;;;;;;;3.20;1.35;;;9.80;75.40;;;;;;4959267;28;20035;-88
2021/03/13 08:01:58;;;;;;;1.38;1.00;;;9.80;75.40;;;;;;4992448;28;20026;-85
2021/03/13 08:04:55;;;;;;;2.10;1.20;;;9.80;75.30;;;;;;4960920;28;20096;-86
2021/03/13 08:07:21;;;;;;;1.95;1.25;;;9.80;75.50;;;;;;4976814;28;20037;-85
2021/03/13 08:09:47;;;;;;;2.33;1.20;;;9.80;75.30;;;;;;4960592;28;20035;-85
2021/03/13 08:12:42;;;;;;;2.55;1.15;;;9.80;75.30;;;;;;4993532;28;20027;-85
2021/03/13 08:15:12;;;;;;;3.75;1.33;;;9.80;75.40;;;;;;4988780;28;20026;-84
2021/03/13 08:17:40;;;;;;;2.65;1.40;;;9.80;75.30;;;;;;4976650;28;20027;-84
2021/03/13 08:20:08;;;;;;;2.90;1.55;;;9.80;75.30;;;;;;4976641;28;20497;-85
2021/03/13 08:22:34;;;;;;;2.00;1.17;;;9.70;75.30;;;;;;4977837;28;20073;-85
2021/03/13 08:25:00;;;;;;;2.03;1.40;;;9.80;75.30;;;;;;4967661;28;20108;-84
2021/03/13 08:27:34;;;;;;;4.43;1.60;;;9.80;75.30;;;;;;4974388;28;20399;-84
2021/03/13 08:30:01;;;;;;;2.17;1.30;;;9.70;75.30;;;;;;4992735;28;20034;-83
2021/03/13 08:33:01;;;;;;;3.08;1.40;;;9.70;75.20;;;;;;4973430;28;20038;-84
2021/03/13 08:35:43;;;;;;;5.28;1.50;;;9.70;75.40;;;;;;4988520;28;20034;-85
2021/03/13 08:38:10;;;;;;;3.70;1.50;;;9.80;75.30;;;;;;4988625;28;20156;-83
2021/03/13 08:40:46;;;;;;;2.50;1.38;;;9.80;75.30;;;;;;4968119;28;20022;-84
2021/03/13 08:43:37;;;;;;;3.38;1.50;;;9.70;75.30;;;;;;4976576;28;20026;-84
2021/03/13 08:46:05;;;;;;;2.45;1.40;;;9.70;75.40;;;;;;4989044;28;20046;-84
2021/03/13 08:48:56;;;;;;;5.05;1.52;;;9.80;75.20;;;;;;4978999;28;20030;-84
2021/03/13 08:51:23;;;;;;;3.83;1.40;;;9.70;75.40;;;;;;4992655;28;20034;-83
2021/03/13 08:53:48;;;;;;;3.42;1.40;;;9.80;75.20;;;;;;4969980;28;20030;-84
2021/03/13 08:56:41;;;;;;;5.18;1.70;;;9.80;75.90;;;;;;4975567;28;20031;-84
2021/03/13 08:59:20;;;;;;;2.83;1.50;;;9.80;75.40;;;;;;4975802;28;20061;-80
2021/03/13 09:02:02;;;;;;;4.07;1.50;;;9.80;75.30;;;;;;4990913;28;20085;-79
2021/03/13 09:04:30;;;;;;;3.85;1.60;;;9.80;75.30;;;;;;4984409;28;20035;-78
2021/03/13 09:06:57;;;;;;;2.85;1.30;;;9.80;75.10;;;;;;4974153;28;20925;-79
2021/03/13 09:09:26;;;;;;;3.50;1.60;;;9.90;75.20;;;;;;4991150;28;20022;-78
2021/03/13 09:12:00;;;;;;;2.75;1.40;;;9.80;75.10;;;;;;4991366;28;20030;-80
2021/03/13 09:14:27;;;;;;;3.90;1.75;;;9.90;75.20;;;;;;4987417;28;20056;-79
2021/03/13 09:16:53;;;;;;;3.97;1.65;;;9.90;75.20;;;;;;4975110;28;20026;-81
2021/03/13 09:19:20;;;;;;;3.92;1.48;;;9.90;75.20;;;;;;4990981;28;20077;-81
2021/03/13 09:21:50;;;;;;;2.28;1.48;;;9.90;75.20;;;;;;4971888;28;20419;-81
2021/03/13 09:24:28;;;;;;;5.63;1.75;;;9.90;75.20;;;;;;4975206;28;20023;-80
2021/03/13 09:26:56;;;;;;;3.35;1.42;;;9.90;75.20;;;;;;4991418;28;20049;-82
2021/03/13 09:29:32;;;;;;;3.20;1.40;;;10.00;75.20;;;;;;4975002;28;20034;-81
2021/03/13 09:32:00;;;;;;;3.85;1.70;;;10.00;75.20;;;;;;4991605;28;20088;-81
2021/03/13 09:34:26;;;;;;;5.50;1.80;;;10.00;75.10;;;;;;4974427;28;20041;-82
2021/03/13 09:36:52;;;;;;;3.67;1.80;;;10.00;75.10;;;;;;4973835;28;20407;-80
2021/03/13 09:39:28;;;;;;;3.53;1.60;;;10.00;75.10;;;;;;4972916;28;20027;-80
2021/03/13 09:42:04;;;;;;;3.55;1.70;;;10.00;75.10;;;;;;4990026;28;20101;-79
2021/03/13 09:44:39;;;;;;;5.30;1.77;;;10.00;75.10;;;;;;4990995;28;20038;-80
2021/03/13 09:47:41;;;;;;;4.35;1.40;;;10.00;75.00;;;;;;4991848;28;20076;-81
2021/03/13 09:50:08;;;;;;;5.05;1.63;;;10.10;75.20;;;;;;4958635;28;20049;-80
2021/03/13 09:52:37;;;;;;;4.13;1.60;;;10.10;75.00;;;;;;4991764;28;20077;-80
2021/03/13 09:55:13;;;;;;;4.38;2.00;;;10.10;75.00;;;;;;4989411;28;20134;-78
2021/03/13 09:57:41;;;;;;;5.18;1.70;;;10.10;75.10;;;;;;4994724;28;20069;-92
2021/03/13 10:00:10;;;;;;;4.85;1.77;;;10.10;75.00;;;;;;4978222;28;20030;-80
2021/03/13 10:02:36;;;;;;;5.28;1.85;;;10.10;75.00;;;;;;4973779;28;20538;-83
2021/03/13 10:05:04;;;;;;;5.05;1.90;;;10.20;75.00;;;;;;4975098;28;20045;-78
2021/03/13 10:07:30;;;;;;;4.70;1.67;;;10.20;75.00;;;;;;4996360;28;20034;-78
2021/03/13 10:10:00;;;;;;;4.65;1.63;;;10.20;75.00;;;;;;4977874;28;20035;-78
2021/03/13 10:12:27;;;;;;;3.63;1.60;;;10.20;75.00;;;;;;4976520;28;20046;-80
2021/03/13 10:14:53;;;;;;;5.90;1.70;;;10.20;75.00;;;;;;4994263;28;20022;-80
2021/03/13 10:17:19;;;;;;;4.70;1.80;;;10.20;74.90;;;;;;4978189;28;20113;-82
2021/03/13 10:19:45;;;;;;;2.92;1.60;;;10.20;74.90;;;;;;4963022;28;20113;-82
2021/03/13 10:22:18;;;;;;;4.75;1.88;;;10.30;75.00;;;;;;4978989;28;20034;-84
2021/03/13 10:24:54;;;;;;;5.43;1.83;;;10.30;75.00;;;;;;4993855;28;20015;-80
2021/03/13 10:27:28;;;;;;;5.15;2.20;;;10.30;75.00;;;;;;4962715;28;20046;-88
2021/03/13 10:30:01;;;;;;;4.82;1.52;;;10.30;75.00;;;;;;4994913;28;20490;-88
2021/03/13 10:32:33;;;;;;;5.10;1.90;;;10.30;75.00;;;;;;4979318;28;20386;-88
2021/03/13 10:35:13;;;;;;;5.22;1.80;;;10.30;75.00;;;;;;4979351;28;20043;-89
2021/03/13 10:37:45;;;;;;;4.10;1.95;;;10.30;75.00;;;;;;4995444;28;20026;-88
2021/03/13 10:40:35;;;;;;;2.85;1.55;;;10.30;75.00;;;;;;4978254;28;20080;-86
2021/03/13 10:43:18;;;;;;;4.40;1.70;;;10.30;75.10;;;;;;4976683;28;20026;-87
2021/03/13 10:46:02;;;;;;;5.53;2.00;;;10.30;75.00;;;;;;4976405;28;20038;-86
2021/03/13 10:48:33;;;;;;;4.25;1.73;;;10.30;75.10;;;;;;4996204;28;20030;-81
2021/03/13 10:50:59;;;;;;;4.03;1.80;;;10.30;75.00;;;;;;4994875;28;20049;-83
2021/03/13 10:53:26;;;;;;;4.47;2.00;;;10.30;75.00;;;;;;4977564;28;20037;-86
2021/03/13 10:55:55;;;;;;;4.10;1.88;;;10.30;75.00;;;;;;4994595;28;20101;-85
2021/03/13 10:58:25;;;;;;;6.80;2.25;;;10.30;75.00;;;;;;4994607;28;20045;-84
2021/03/13 11:00:51;;;;;;;5.00;1.92;;;10.30;75.00;;;;;;4976764;28;20379;-86
2021/03/13 11:03:17;;;;;;;3.63;1.63;;;10.30;75.00;;;;;;4995250;28;20038;-89
2021/03/13 11:05:43;;;;;;;4.35;1.60;;;10.30;75.00;;;;;;4974678;28;20035;-89
2021/03/13 11:08:12;;;;;;;4.55;2.20;;;10.20;75.00;;;;;;4978665;28;20027;-89
2021/03/13 11:10:38;;;;;;;3.70;1.88;;;10.20;75.00;;;;;;4994771;28;20109;-88
2021/03/13 11:13:05;;;;;;;4.82;1.80;;;10.30;75.00;;;;;;4978383;28;21240;-89
2021/03/13 11:15:31;;;;;;;4.05;1.58;;;10.30;75.00;;;;;;4994457;28;20030;-89
2021/03/13 11:17:57;;;;;;;5.85;2.08;;;10.30;75.00;;;;;;4994142;28;20034;-88
2021/03/13 11:20:23;;;;;;;6.30;1.65;;;10.30;75.00;;;;;;4974904;28;20030;-88
2021/03/13 11:22:49;;;;;;;7.13;2.30;;;10.30;75.00;;;;;;4978024;28;20019;-87
2021/03/13 11:25:15;;;;;;;5.13;1.80;;;10.30;75.00;;;;;;4994526;28;20046;-88
2021/03/13 11:27:40;;;;;;;4.85;2.25;;;10.30;75.00;;;;;;4974561;28;20484;-88
2021/03/13 11:30:08;;;;;;;4.85;1.75;;;10.30;75.00;;;;;;4967483;28;20027;-88
2021/03/13 11:32:34;;;;;;;4.38;1.98;;;10.30;75.00;;;;;;4977811;28;20026;-87
2021/03/13 11:35:00;;;;;;;7.28;2.20;;;10.30;75.00;;;;;;4994431;28;20082;-87
2021/03/13 11:37:26;;;;;;;6.50;1.73;;;10.30;75.00;;;;;;4961693;28;20077;-88
2021/03/13 11:39:51;;;;;;;7.15;2.20;;;10.30;75.00;;;;;;4994068;28;20073;-89
2021/03/13 11:42:18;;;;;;;4.70;1.67;;;10.30;74.90;;;;;;4994181;28;20035;-88
2021/03/13 11:44:44;;;;;;;3.72;1.80;;;10.30;74.90;;;;;;4991315;28;20100;-87
2021/03/13 11:47:10;;;;;;;5.28;2.00;;;10.40;75.00;;;;;;4977511;28;20074;-87
2021/03/13 11:49:36;;;;;;;7.43;2.20;;;10.30;74.90;;;;;;4974830;28;20030;-89
2021/03/13 11:52:02;;;;;;;3.00;1.63;;;10.40;74.90;;;;;;4976732;28;20065;-92
2021/03/13 11:54:27;;;;;;;5.78;2.28;;;10.40;74.80;;;;;;4960818;28;20030;-89
2021/03/13 11:56:53;;;;;;;3.90;2.08;;;10.40;74.80;;;;;;4992269;28;20034;-83
2021/03/13 11:59:19;;;;;;;3.47;1.60;;;10.40;74.80;;;;;;4992641;28;20034;-81
2021/03/13 12:01:45;;;;;;;4.10;1.60;;;10.40;74.80;;;;;;4974957;28;20394;-82
2021/03/13 12:04:10;;;;;;;3.45;1.48;;;10.40;74.80;;;;;;4958616;28;20030;-79
2021/03/13 12:06:36;;;;;;;4.82;1.98;;;10.50;74.80;;;;;;4991817;28;20099;-81
2021/03/13 12:09:02;;;;;;;3.13;1.65;;;10.50;74.90;;;;;;4989979;28;20057;-80
2021/03/13 12:11:29;;;;;;;4.60;1.70;;;10.50;74.80;;;;;;4992155;28;20084;-80
2021/03/13 12:13:54;;;;;;;3.83;1.50;;;10.50;74.80;;;;;;4974302;28;20113;-80
2021/03/13 12:16:21;;;;;;;4.18;1.70;;;10.50;74.80;;;;;;4990346;28;20181;-80
2021/03/13 12:18:47;;;;;;;4.75;1.88;;;10.50;74.90;;;;;;4991653;28;20041;-79
2021/03/13 12:21:12;;;;;;;3.03;1.55;;;10.50;74.80;;;;;;4991858;28;20042;-80
2021/03/13 12:23:38;;;;;;;4.88;1.70;;;10.60;74.90;;;;;;4975805;28;20026;-80
2021/03/13 12:26:04;;;;;;;4.70;1.67;;;10.60;74.90;;;;;;4989631;28;20101;-79
2021/03/13 12:28:30;;;;;;;3.15;1.50;;;10.60;74.90;;;;;;4991811;28;20049;-80
2021/03/13 12:30:55;;;;;;;4.15;1.45;;;10.60;74.90;;;;;;4974983;28;20685;-80
2021/03/13 12:33:21;;;;;;;4.03;1.35;;;10.60;74.90;;;;;;4993473;28;20117;-80
2021/03/13 12:35:47;;;;;;;3.17;1.58;;;10.60;74.90;;;;;;4992214;28;20038;-79
2021/03/13 12:38:13;;;;;;;3.05;1.40;;;10.70;75.00;;;;;;4943330;28;20053;-79
2021/03/13 12:40:38;;;;;;;4.22;1.40;;;10.70;74.90;;;;;;4991421;28;20118;-79
2021/03/13 12:43:04;;;;;;;2.22;1.27;;;10.70;74.90;;;;;;4991246;28;20042;-79
2021/03/13 12:45:30;;;;;;;2.83;1.40;;;10.70;74.80;;;;;;4991611;28;20048;-78
2021/03/13 12:47:56;;;;;;;3.88;1.30;;;10.70;74.80;;;;;;4973816;28;20042;-80
2021/03/13 12:50:22;;;;;;;3.28;1.40;;;10.70;74.80;;;;;;4975662;28;20069;-79
2021/03/13 12:52:48;;;;;;;4.63;2.00;;;10.70;74.80;;;;;;4975171;28;20046;-79
2021/03/13 12:55:15;;;;;;;3.10;1.65;;;10.70;74.80;;;;;;4992915;28;20403;-79
2021/03/13 12:57:41;;;;;;;3.42;1.48;;;10.80;74.80;;;;;;4959802;28;20030;-79
2021/03/13 13:00:08;;;;;;;4.75;1.60;;;10.80;75.40;;;;;;4990967;28;20111;-80
2021/03/13 13:02:35;;;;;;;3.30;1.58;;;10.80;74.70;;;;;;4992692;28;20030;-79
2021/03/13 13:05:02;;;;;;;2.40;1.33;;;10.80;74.70;;;;;;4974247;28;20062;-78
2021/03/13 13:07:28;;;;;;;4.47;1.65;;;10.80;74.70;;;;;;4991423;28;20034;-78